Time;durP1;ratioP1;P1;durP2;ratioP2;P2;SDS_P1;SDS_P2;PMS_P1;PMS_P2;Temp;Humidity;BMP_temperature;BMP_pressure;BME280_temperature;BME280_humidity;BME280_pressure;Samples;Min_cycle;Max_cycle;Signal;HPM_P1;HPM_P2
2023/05/17 00:02:16;;;;;;;3.67;1.52;;;;;;;;;;4981151;28;20027;-79
2023/05/17 00:04:41;;;;;;;6.38;1.58;;;;;;;;;;4997608;28;20093;-78
2023/05/17 00:07:06;;;;;;;3.28;1.50;;;;;;;;;;4980722;28;20176;-78
2023/05/17 00:09:32;;;;;;;9.43;2.30;;;;;;;;;;4999074;28;20505;-78
2023/05/17 00:11:57;;;;;;;6.80;1.57;;;;;;;;;;4996479;28;20767;-77
2023/05/17 00:14:22;;;;;;;3.53;1.50;;;;;;;;;;4997888;28;20270;-79
2023/05/17 00:16:47;;;;;;;4.77;1.70;;;;;;;;;;4998833;28;20283;-79
2023/05/17 00:19:12;;;;;;;2.92;1.50;;;;;;;;;;4983633;28;20786;-79
2023/05/17 00:21:38;;;;;;;4.00;1.47;;;;;;;;;;5001479;28;20398;-79
2023/05/17 00:24:03;;;;;;;2.67;1.63;;;;;;;;;;5000648;28;20635;-78
2023/05/17 00:26:28;;;;;;;5.15;1.45;;;;;;;;;;4999354;28;20395;-78
2023/05/17 00:28:54;;;;;;;4.57;1.80;;;;;;;;;;4999410;28;20074;-78
2023/05/17 00:31:19;;;;;;;4.93;1.73;;;;;;;;;;4998337;28;20334;-77
2023/05/17 00:33:46;;;;;;;4.47;1.37;;;;;;;;;;4999661;28;20272;-79
2023/05/17 00:36:11;;;;;;;2.63;1.40;;;;;;;;;;5000256;28;20287;-81
2023/05/17 00:38:36;;;;;;;3.15;1.40;;;;;;;;;;4999329;28;20030;-78
2023/05/17 00:41:02;;;;;;;5.10;1.77;;;;;;;;;;4981155;28;20019;-79
2023/05/17 00:43:27;;;;;;;2.30;1.58;;;;;;;;;;4999106;28;20318;-80
2023/05/17 00:45:52;;;;;;;2.85;1.58;;;;;;;;;;4997212;28;20084;-80
2023/05/17 00:48:19;;;;;;;3.13;1.40;;;;;;;;;;4999061;28;20029;-80
2023/05/17 00:51:15;;;;;;;5.47;2.08;;;;;;;;;;4998656;28;20030;-81
2023/05/17 00:53:43;;;;;;;2.63;1.30;;;;;;;;;;4981133;28;20057;-76
2023/05/17 00:56:08;;;;;;;1.92;1.30;;;;;;;;;;4998738;28;20022;-80
2023/05/17 00:58:35;;;;;;;5.03;1.73;;;;;;;;;;4998537;28;20034;-78
2023/05/17 01:01:04;;;;;;;4.50;1.30;;;;;;;;;;4998076;28;20022;-79
2023/05/17 01:03:29;;;;;;;6.10;1.52;;;;;;;;;;4998222;28;20037;-80
2023/05/17 01:05:57;;;;;;;6.05;1.50;;;;;;;;;;4999640;28;20023;-81
2023/05/17 01:08:48;;;;;;;3.70;1.38;;;;;;;;;;4998947;28;20022;-80
2023/05/17 01:12:12;;;;;;;3.38;1.33;;;;;;;;;;4997851;28;20037;-79
2023/05/17 01:14:55;;;;;;;3.90;1.40;;;;;;;;;;4922922;29;20114;-78
2023/05/17 01:17:40;;;;;;;5.40;1.50;;;;;;;;;;4998884;28;20109;-80
2023/05/17 01:20:11;;;;;;;3.63;1.40;;;;;;;;;;4980197;28;20483;-78
2023/05/17 01:22:37;;;;;;;4.07;1.60;;;;;;;;;;4998700;28;20067;-81
2023/05/17 01:25:42;;;;;;;2.83;1.25;;;;;;;;;;4997204;28;20106;-81
2023/05/17 01:28:56;;;;;;;;;;;;;;;;;;;;;
2023/05/17 01:31:14;;;;;;;8.88;1.52;;;;;;;;;;5181947;22;20053;-80
2023/05/17 01:33:50;;;;;;;3.15;1.40;;;;;;;;;;5020924;28;20036;-81
2023/05/17 01:36:28;;;;;;;3.17;1.10;;;;;;;;;;5038488;28;20072;-81
2023/05/17 01:39:24;;;;;;;4.45;1.38;;;;;;;;;;5019704;28;20041;-80
2023/05/17 01:42:52;;;;;;;5.15;1.42;;;;;;;;;;5019786;28;20092;-80
2023/05/17 01:45:25;;;;;;;2.33;1.30;;;;;;;;;;4979991;28;20112;-77
2023/05/17 01:48:19;;;;;;;3.70;1.35;;;;;;;;;;4995462;28;20402;-79
2023/05/17 01:50:58;;;;;;;3.80;1.40;;;;;;;;;;5009778;28;20511;-77
2023/05/17 01:54:22;;;;;;;;;;;;;;;;;;;;;
2023/05/17 01:56:56;;;;;;;3.35;1.20;;;;;;;;;;5036295;28;20045;-78
2023/05/17 01:59:25;;;;;;;4.68;1.30;;;;;;;;;;5018830;28;20095;-80
2023/05/17 02:02:05;;;;;;;4.35;1.40;;;;;;;;;;5036916;28;20033;-77
2023/05/17 02:04:30;;;;;;;4.25;1.50;;;;;;;;;;5036673;28;20029;-78
2023/05/17 02:06:56;;;;;;;7.35;1.38;;;;;;;;;;5036697;28;20018;-78
2023/05/17 02:09:21;;;;;;;3.22;1.20;;;;;;;;;;5036733;28;20071;-76
2023/05/17 02:11:46;;;;;;;3.00;1.30;;;;;;;;;;5037120;28;20124;-78
2023/05/17 02:14:11;;;;;;;4.23;1.47;;;;;;;;;;5035757;28;20056;-79
2023/05/17 02:16:37;;;;;;;2.23;1.10;;;;;;;;;;5018789;28;20258;-79
2023/05/17 02:19:02;;;;;;;4.25;1.30;;;;;;;;;;5036458;28;20324;-81
2023/05/17 02:21:27;;;;;;;3.13;1.40;;;;;;;;;;5036189;28;20053;-78
2023/05/17 02:23:52;;;;;;;4.63;1.45;;;;;;;;;;5036297;28;20316;-78
2023/05/17 02:26:17;;;;;;;3.80;1.20;;;;;;;;;;5036450;28;20029;-78
2023/05/17 02:28:43;;;;;;;5.27;1.47;;;;;;;;;;5036588;28;20266;-78
2023/05/17 02:31:08;;;;;;;3.45;1.20;;;;;;;;;;5035904;28;20266;-77
2023/05/17 02:33:34;;;;;;;3.03;1.30;;;;;;;;;;5035828;28;20059;-77
2023/05/17 02:35:59;;;;;;;5.50;1.30;;;;;;;;;;5018344;28;20472;-78
2023/05/17 02:38:24;;;;;;;5.03;1.42;;;;;;;;;;5035597;28;20489;-79
2023/05/17 02:44:05;;;;;;;7.00;1.55;;;;;;;;;;5042400;28;20329;-79
2023/05/17 02:46:54;;;;;;;4.95;1.23;;;;;;;;;;5040807;28;20033;-82
2023/05/17 02:49:48;;;;;;;;;;;;;;;;;;;;;
2023/05/17 02:52:59;;;;;;;2.00;1.10;;;;;;;;;;5038271;28;20107;-79
2023/05/17 02:55:28;;;;;;;2.92;1.30;;;;;;;;;;5032827;28;20037;-81
2023/05/17 02:58:08;;;;;;;5.22;1.27;;;;;;;;;;5038137;28;20039;-82
2023/05/17 03:00:58;;;;;;;8.07;1.67;;;;;;;;;;5019645;28;20060;-82
2023/05/17 03:04:02;;;;;;;6.22;1.27;;;;;;;;;;5019643;28;20021;-81
2023/05/17 03:09:50;;;;;;;6.30;1.42;;;;;;;;;;5035739;28;20048;-77
2023/05/17 03:12:16;;;;;;;2.13;1.20;;;;;;;;;;5035703;28;20056;-79
2023/05/17 03:14:41;;;;;;;3.47;1.27;;;;;;;;;;5036122;28;20021;-79
2023/05/17 03:17:06;;;;;;;3.20;1.33;;;;;;;;;;5036911;28;20343;-78
2023/05/17 03:19:32;;;;;;;3.13;1.50;;;;;;;;;;5036322;28;20286;-77
2023/05/17 03:21:57;;;;;;;7.13;1.30;;;;;;;;;;5037509;28;20269;-79
2023/05/17 03:24:22;;;;;;;3.97;1.40;;;;;;;;;;5036934;28;20263;-79
2023/05/17 03:26:47;;;;;;;6.00;1.37;;;;;;;;;;5037892;28;20285;-78
2023/05/17 03:29:13;;;;;;;4.57;1.30;;;;;;;;;;5039944;28;20263;-79
2023/05/17 03:31:38;;;;;;;5.40;1.27;;;;;;;;;;5036105;28;20261;-78
2023/05/17 03:34:03;;;;;;;3.53;1.25;;;;;;;;;;5036365;28;20485;-80
2023/05/17 03:36:28;;;;;;;3.80;1.30;;;;;;;;;;5035949;28;20025;-76
2023/05/17 03:38:53;;;;;;;2.95;1.48;;;;;;;;;;5036988;28;20026;-76
2023/05/17 03:41:19;;;;;;;4.35;1.50;;;;;;;;;;5036169;28;20035;-77
2023/05/17 03:43:44;;;;;;;4.30;1.48;;;;;;;;;;5035976;28;20071;-78
2023/05/17 03:46:10;;;;;;;3.88;1.38;;;;;;;;;;5017577;28;20025;-79
2023/05/17 03:48:35;;;;;;;4.05;1.70;;;;;;;;;;5036802;28;20029;-77
2023/05/17 03:51:01;;;;;;;7.55;1.63;;;;;;;;;;5036772;28;20026;-78
2023/05/17 03:53:26;;;;;;;5.00;1.73;;;;;;;;;;5040589;28;20021;-78
2023/05/17 03:55:51;;;;;;;4.75;1.50;;;;;;;;;;5023798;28;20028;-77
2023/05/17 03:58:17;;;;;;;4.18;1.50;;;;;;;;;;5042027;28;20017;-78
2023/05/17 04:00:42;;;;;;;3.78;1.40;;;;;;;;;;5040678;28;20468;-78
2023/05/17 04:03:07;;;;;;;2.65;1.30;;;;;;;;;;5038265;28;20036;-78
2023/05/17 04:05:32;;;;;;;5.30;1.50;;;;;;;;;;5038444;28;20083;-77
2023/05/17 04:07:57;;;;;;;4.43;1.63;;;;;;;;;;5020897;28;20263;-78
2023/05/17 04:10:23;;;;;;;5.72;1.67;;;;;;;;;;5039376;28;20500;-78
2023/05/17 04:12:48;;;;;;;6.90;1.60;;;;;;;;;;5021240;28;20059;-78
2023/05/17 04:15:14;;;;;;;4.30;1.42;;;;;;;;;;5041494;28;20400;-78
2023/05/17 04:17:39;;;;;;;7.68;1.67;;;;;;;;;;5040467;28;20056;-78
2023/05/17 04:20:07;;;;;;;4.57;1.80;;;;;;;;;;5023468;28;20017;-78
2023/05/17 04:22:32;;;;;;;3.42;1.70;;;;;;;;;;5038088;28;20385;-78
2023/05/17 04:24:58;;;;;;;6.03;1.80;;;;;;;;;;5022882;28;20038;-78
2023/05/17 04:27:23;;;;;;;4.72;1.52;;;;;;;;;;5022559;28;20281;-77
2023/05/17 04:29:48;;;;;;;3.97;1.60;;;;;;;;;;5038157;28;20022;-78
2023/05/17 04:32:13;;;;;;;4.20;1.35;;;;;;;;;;5039014;28;20037;-79
2023/05/17 04:34:39;;;;;;;3.70;1.55;;;;;;;;;;5038502;28;20031;-79
2023/05/17 04:37:05;;;;;;;4.55;1.67;;;;;;;;;;5020663;28;20412;-79
2023/05/17 04:39:30;;;;;;;3.03;1.33;;;;;;;;;;5038546;28;20067;-78
2023/05/17 04:41:55;;;;;;;4.13;1.55;;;;;;;;;;5039723;28;20032;-78
2023/05/17 04:44:20;;;;;;;4.90;1.50;;;;;;;;;;5038350;28;20025;-79
2023/05/17 04:46:45;;;;;;;6.30;1.67;;;;;;;;;;5020609;28;20290;-78
2023/05/17 04:49:11;;;;;;;8.38;1.67;;;;;;;;;;5039514;28;20270;-78
2023/05/17 04:51:36;;;;;;;4.97;1.65;;;;;;;;;;5038483;28;20110;-79
2023/05/17 04:54:05;;;;;;;8.80;1.70;;;;;;;;;;5021626;28;20543;-79
2023/05/17 04:56:31;;;;;;;5.70;1.40;;;;;;;;;;5022183;28;20024;-78
2023/05/17 04:58:56;;;;;;;3.92;1.58;;;;;;;;;;5019912;28;20029;-78
2023/05/17 05:01:21;;;;;;;4.60;1.60;;;;;;;;;;5020713;28;20029;-78
2023/05/17 05:03:46;;;;;;;8.85;1.80;;;;;;;;;;5037358;28;20347;-79
2023/05/17 05:06:12;;;;;;;5.67;2.00;;;;;;;;;;5038041;28;20484;-78
2023/05/17 05:08:37;;;;;;;5.93;1.63;;;;;;;;;;5037491;28;20269;-79
2023/05/17 05:11:03;;;;;;;6.87;2.00;;;;;;;;;;5037491;28;20071;-78
2023/05/17 05:13:28;;;;;;;5.72;1.67;;;;;;;;;;5037652;28;20338;-79
2023/05/17 05:15:53;;;;;;;4.45;1.70;;;;;;;;;;5042019;28;20068;-79
2023/05/17 05:18:19;;;;;;;4.28;1.90;;;;;;;;;;5043598;28;20085;-78
2023/05/17 05:20:46;;;;;;;7.10;1.80;;;;;;;;;;5025494;28;20027;-78
2023/05/17 05:23:12;;;;;;;6.82;1.80;;;;;;;;;;5042172;28;20048;-78
2023/05/17 05:25:37;;;;;;;12.35;2.53;;;;;;;;;;5023793;28;20048;-77
2023/05/17 05:28:02;;;;;;;3.28;1.80;;;;;;;;;;5040818;28;20025;-79
2023/05/17 05:30:27;;;;;;;8.13;2.20;;;;;;;;;;5040972;28;20030;-78
2023/05/17 05:32:53;;;;;;;8.32;1.95;;;;;;;;;;5026130;28;20067;-79
2023/05/17 05:35:18;;;;;;;9.10;2.08;;;;;;;;;;5043216;28;20024;-78
2023/05/17 05:37:44;;;;;;;6.10;2.08;;;;;;;;;;5044617;28;20079;-78
2023/05/17 05:40:10;;;;;;;5.70;2.20;;;;;;;;;;5023135;28;20025;-77
2023/05/17 05:42:35;;;;;;;7.63;2.30;;;;;;;;;;5040977;28;20022;-78
2023/05/17 05:45:01;;;;;;;8.07;2.50;;;;;;;;;;5045932;28;20035;-78
2023/05/17 05:47:29;;;;;;;5.95;2.00;;;;;;;;;;5044363;28;20025;-77
2023/05/17 05:49:54;;;;;;;7.18;2.38;;;;;;;;;;5043638;28;20025;-77
2023/05/17 05:52:19;;;;;;;12.45;2.05;;;;;;;;;;5038912;28;20029;-77
2023/05/17 05:54:45;;;;;;;9.18;2.45;;;;;;;;;;5035906;28;20052;-77
2023/05/17 05:57:10;;;;;;;4.80;1.77;;;;;;;;;;5038306;28;20424;-78
2023/05/17 05:59:35;;;;;;;7.72;2.53;;;;;;;;;;5035960;28;20663;-77
2023/05/17 06:02:00;;;;;;;6.03;2.40;;;;;;;;;;5020050;28;20093;-79
2023/05/17 06:04:26;;;;;;;8.93;2.40;;;;;;;;;;5019559;28;20026;-79
2023/05/17 06:06:53;;;;;;;9.43;2.60;;;;;;;;;;5037549;28;20287;-80
2023/05/17 06:09:18;;;;;;;8.00;2.85;;;;;;;;;;5034713;28;20029;-77
2023/05/17 06:11:43;;;;;;;8.13;2.43;;;;;;;;;;5035569;28;20056;-77
2023/05/17 06:14:08;;;;;;;5.43;2.10;;;;;;;;;;5038180;28;20259;-78
2023/05/17 06:16:34;;;;;;;5.78;2.15;;;;;;;;;;5041087;28;20312;-79
2023/05/17 06:18:59;;;;;;;6.40;2.35;;;;;;;;;;5036641;28;20060;-78
2023/05/17 06:21:24;;;;;;;6.38;2.63;;;;;;;;;;5036720;28;20029;-78
2023/05/17 06:23:50;;;;;;;7.95;3.00;;;;;;;;;;5037284;28;20036;-78
2023/05/17 06:26:15;;;;;;;9.98;2.40;;;;;;;;;;5036712;28;20108;-78
2023/05/17 06:28:40;;;;;;;10.90;2.55;;;;;;;;;;5036528;28;20033;-78
2023/05/17 06:31:06;;;;;;;8.27;2.90;;;;;;;;;;5036380;28;20492;-78
2023/05/17 06:33:31;;;;;;;8.35;2.60;;;;;;;;;;5037204;28;20808;-78
2023/05/17 06:35:56;;;;;;;12.82;3.13;;;;;;;;;;5036511;28;20028;-77
2023/05/17 06:38:22;;;;;;;7.13;2.40;;;;;;;;;;5037138;28;20060;-78
2023/05/17 06:40:52;;;;;;;9.93;2.67;;;;;;;;;;5037137;28;20273;-78
2023/05/17 06:43:17;;;;;;;12.80;2.50;;;;;;;;;;5037349;28;20021;-77
2023/05/17 06:45:43;;;;;;;7.68;2.83;;;;;;;;;;5034546;28;20033;-77
2023/05/17 06:48:08;;;;;;;15.03;2.80;;;;;;;;;;5018100;28;20025;-78
2023/05/17 06:50:33;;;;;;;8.07;2.53;;;;;;;;;;5034475;28;20263;-78
2023/05/17 06:52:58;;;;;;;9.60;2.90;;;;;;;;;;5019109;28;20254;-76
2023/05/17 06:55:23;;;;;;;8.57;2.90;;;;;;;;;;5035463;28;20324;-78
2023/05/17 06:57:49;;;;;;;9.17;2.50;;;;;;;;;;5034673;28;20049;-78
2023/05/17 07:00:15;;;;;;;7.80;3.00;;;;;;;;;;5034457;28;20259;-77
2023/05/17 07:02:40;;;;;;;9.30;2.83;;;;;;;;;;5036401;28;20538;-77
2023/05/17 07:05:05;;;;;;;8.63;2.47;;;;;;;;;;5015750;28;20029;-78
2023/05/17 07:07:31;;;;;;;10.40;1.92;;;;;;;;;;5034048;28;20463;-77
2023/05/17 07:09:56;;;;;;;9.70;2.88;;;;;;;;;;5035706;28;20366;-78
2023/05/17 07:12:21;;;;;;;13.23;2.87;;;;;;;;;;5035959;28;20040;-79
2023/05/17 07:14:46;;;;;;;5.47;2.37;;;;;;;;;;5036628;28;20274;-78
2023/05/17 07:17:12;;;;;;;8.55;2.50;;;;;;;;;;5034234;28;20262;-76
2023/05/17 07:19:37;;;;;;;18.60;2.83;;;;;;;;;;5036862;28;20480;-76
2023/05/17 07:22:02;;;;;;;7.53;2.30;;;;;;;;;;5017830;28;20049;-78
2023/05/17 07:24:27;;;;;;;9.18;2.90;;;;;;;;;;5035801;28;20080;-78
2023/05/17 07:26:53;;;;;;;8.70;2.67;;;;;;;;;;5035510;28;20029;-78
2023/05/17 07:29:18;;;;;;;8.65;2.67;;;;;;;;;;5034785;28;20250;-77
2023/05/17 07:31:43;;;;;;;6.75;1.85;;;;;;;;;;5033289;28;20036;-78
2023/05/17 07:34:08;;;;;;;8.40;2.38;;;;;;;;;;5034055;28;20428;-78
2023/05/17 07:36:34;;;;;;;8.20;2.43;;;;;;;;;;5034436;28;20025;-78
2023/05/17 07:38:59;;;;;;;10.77;2.63;;;;;;;;;;5034514;28;20298;-77
2023/05/17 07:41:25;;;;;;;5.47;2.47;;;;;;;;;;5034941;28;20263;-78
2023/05/17 07:43:51;;;;;;;10.25;2.63;;;;;;;;;;5017160;28;20263;-78
2023/05/17 07:46:16;;;;;;;9.68;2.53;;;;;;;;;;5034937;28;20031;-78
2023/05/17 07:48:42;;;;;;;11.43;3.08;;;;;;;;;;5034789;28;20033;-77
2023/05/17 07:51:07;;;;;;;8.68;2.55;;;;;;;;;;5017833;28;20397;-79
2023/05/17 07:53:32;;;;;;;5.37;2.43;;;;;;;;;;5017787;28;20025;-79
2023/05/17 07:55:57;;;;;;;8.17;2.63;;;;;;;;;;5034797;28;20328;-79
2023/05/17 07:58:23;;;;;;;10.80;2.88;;;;;;;;;;5017901;28;20259;-79
2023/05/17 08:00:48;;;;;;;7.93;2.28;;;;;;;;;;5017332;28;20029;-79
2023/05/17 08:03:13;;;;;;;8.98;2.70;;;;;;;;;;5034852;28;20508;-79
2023/05/17 08:05:39;;;;;;;5.72;2.20;;;;;;;;;;5016820;28;20057;-79
2023/05/17 08:08:04;;;;;;;7.45;2.40;;;;;;;;;;5036654;28;20040;-79
2023/05/17 08:10:29;;;;;;;5.78;2.33;;;;;;;;;;5034672;28;20025;-79
2023/05/17 08:12:54;;;;;;;5.73;2.40;;;;;;;;;;5017521;28;20119;-77
2023/05/17 08:15:20;;;;;;;6.45;1.83;;;;;;;;;;5035206;28;20309;-78
2023/05/17 08:17:46;;;;;;;10.30;1.83;;;;;;;;;;5033777;28;20025;-78
2023/05/17 08:20:11;;;;;;;4.95;1.75;;;;;;;;;;5018992;28;20088;-79
2023/05/17 08:22:36;;;;;;;7.55;2.28;;;;;;;;;;5036412;28;20038;-77
2023/05/17 08:25:02;;;;;;;5.78;2.33;;;;;;;;;;5035040;28;20025;-78
2023/05/17 08:27:29;;;;;;;9.13;2.13;;;;;;;;;;5017888;28;20029;-77
2023/05/17 08:29:56;;;;;;;9.40;2.42;;;;;;;;;;5016242;28;20026;-77
2023/05/17 08:32:22;;;;;;;9.50;2.08;;;;;;;;;;5035122;28;20409;-79
2023/05/17 08:34:47;;;;;;;6.07;1.92;;;;;;;;;;5033824;28;20022;-76
2023/05/17 08:37:13;;;;;;;7.68;2.67;;;;;;;;;;5035881;28;20041;-77
2023/05/17 08:39:38;;;;;;;3.17;1.52;;;;;;;;;;5040020;28;20072;-78
2023/05/17 08:42:07;;;;;;;8.32;2.17;;;;;;;;;;5041011;28;20018;-78
2023/05/17 08:44:32;;;;;;;6.50;2.10;;;;;;;;;;5021597;28;20449;-78
2023/05/17 08:46:59;;;;;;;11.35;2.33;;;;;;;;;;5022572;28;20061;-78
2023/05/17 08:49:27;;;;;;;7.32;1.80;;;;;;;;;;5023122;28;20025;-78
2023/05/17 08:51:54;;;;;;;7.00;2.08;;;;;;;;;;5040359;28;20022;-78
2023/05/17 08:54:19;;;;;;;5.38;2.25;;;;;;;;;;5038463;28;20425;-77
2023/05/17 08:56:51;;;;;;;2.22;1.35;;;;;;;;;;5020500;28;20057;-79
2023/05/17 08:59:18;;;;;;;6.47;2.05;;;;;;;;;;5021078;28;20049;-78
2023/05/17 09:01:46;;;;;;;6.53;2.03;;;;;;;;;;5040180;28;20021;-79
2023/05/17 09:04:12;;;;;;;5.40;1.65;;;;;;;;;;5039483;28;20032;-77
2023/05/17 09:06:37;;;;;;;9.90;2.72;;;;;;;;;;5039080;28;20022;-77
2023/05/17 09:09:06;;;;;;;9.60;2.50;;;;;;;;;;5038487;28;20037;-77
2023/05/17 09:11:31;;;;;;;8.50;2.22;;;;;;;;;;5040095;28;20269;-78
2023/05/17 09:14:07;;;;;;;8.70;2.28;;;;;;;;;;5039927;28;20401;-77
2023/05/17 09:16:34;;;;;;;5.53;1.70;;;;;;;;;;5041033;28;20068;-78
2023/05/17 09:19:00;;;;;;;7.57;1.90;;;;;;;;;;5039116;28;20032;-79
2023/05/17 09:21:26;;;;;;;6.40;2.10;;;;;;;;;;5022076;28;20021;-78
2023/05/17 09:23:53;;;;;;;8.70;2.08;;;;;;;;;;5040435;28;20107;-77
2023/05/17 09:26:19;;;;;;;7.25;2.00;;;;;;;;;;5040176;28;20036;-79
2023/05/17 09:28:46;;;;;;;8.52;2.13;;;;;;;;;;5021748;28;20477;-79
2023/05/17 09:31:15;;;;;;;5.43;2.10;;;;;;;;;;5040340;28;20089;-78
2023/05/17 09:33:48;;;;;;;7.97;2.28;;;;;;;;;;5039119;28;20175;-78
2023/05/17 09:36:17;;;;;;;4.57;2.10;;;;;;;;;;5023314;28;20067;-78
2023/05/17 09:38:51;;;;;;;8.60;2.83;;;;;;;;;;5039916;28;20075;-79
2023/05/17 09:41:16;;;;;;;6.80;2.05;;;;;;;;;;5039339;28;20508;-79
2023/05/17 09:43:42;;;;;;;8.45;2.45;;;;;;;;;;5039464;28;20038;-79
2023/05/17 09:46:07;;;;;;;9.15;2.65;;;;;;;;;;5020459;28;20485;-78
2023/05/17 09:48:37;;;;;;;8.73;2.27;;;;;;;;;;5036068;28;20021;-79
2023/05/17 09:51:02;;;;;;;9.23;2.50;;;;;;;;;;5037033;28;20262;-78
2023/05/17 09:53:29;;;;;;;7.38;2.20;;;;;;;;;;5037583;28;20036;-79
2023/05/17 09:55:59;;;;;;;6.82;1.85;;;;;;;;;;5036087;28;20018;-79
2023/05/17 09:58:27;;;;;;;5.95;1.95;;;;;;;;;;5018850;28;20151;-79
2023/05/17 10:00:57;;;;;;;6.78;2.42;;;;;;;;;;5036844;28;20477;-79
2023/05/17 10:03:29;;;;;;;12.10;2.33;;;;;;;;;;5037550;28;20033;-79
2023/05/17 10:05:54;;;;;;;10.52;2.22;;;;;;;;;;5018609;28;20027;-78
2023/05/17 10:08:22;;;;;;;10.57;2.17;;;;;;;;;;5018303;28;20032;-79
2023/05/17 10:10:48;;;;;;;7.38;2.55;;;;;;;;;;5035978;28;20025;-79
2023/05/17 10:13:15;;;;;;;8.82;2.45;;;;;;;;;;5019102;28;20056;-78
2023/05/17 10:15:41;;;;;;;6.30;2.17;;;;;;;;;;5018897;28;20456;-79
2023/05/17 10:18:08;;;;;;;9.65;2.80;;;;;;;;;;5035592;28;20037;-78
2023/05/17 10:20:34;;;;;;;8.75;2.25;;;;;;;;;;5037114;28;20471;-79
2023/05/17 10:23:02;;;;;;;8.40;2.10;;;;;;;;;;5035990;28;20108;-78
2023/05/17 10:25:28;;;;;;;6.82;2.08;;;;;;;;;;5035135;28;20017;-78
2023/05/17 10:27:53;;;;;;;4.80;1.98;;;;;;;;;;5017683;28;20032;-78
2023/05/17 10:30:20;;;;;;;6.10;2.15;;;;;;;;;;5035600;28;20030;-77
2023/05/17 10:32:46;;;;;;;5.68;2.38;;;;;;;;;;5017716;28;20094;-78
2023/05/17 10:35:14;;;;;;;12.43;2.20;;;;;;;;;;5035937;28;20147;-78
2023/05/17 10:37:40;;;;;;;7.82;2.13;;;;;;;;;;5035883;28;20017;-78
2023/05/17 10:40:06;;;;;;;8.90;2.40;;;;;;;;;;5017132;28;20025;-77
2023/05/17 10:42:31;;;;;;;6.10;2.05;;;;;;;;;;5036125;28;20128;-76
2023/05/17 10:44:59;;;;;;;7.60;2.28;;;;;;;;;;5034913;28;20096;-76
2023/05/17 10:47:31;;;;;;;7.07;2.10;;;;;;;;;;5035271;28;20430;-77
2023/05/17 10:49:57;;;;;;;5.32;1.83;;;;;;;;;;5035324;28;20025;-77
2023/05/17 10:52:22;;;;;;;4.45;1.60;;;;;;;;;;5035151;28;20429;-78
2023/05/17 10:54:49;;;;;;;7.07;1.83;;;;;;;;;;5034433;28;20025;-77
2023/05/17 10:57:31;;;;;;;4.97;1.92;;;;;;;;;;5016506;28;20021;-77
2023/05/17 11:00:01;;;;;;;6.50;1.98;;;;;;;;;;5033652;28;20029;-77
2023/05/17 11:02:27;;;;;;;8.57;1.98;;;;;;;;;;5034586;28;20036;-77
2023/05/17 11:04:54;;;;;;;5.03;1.77;;;;;;;;;;5017215;28;20025;-77
2023/05/17 11:07:25;;;;;;;7.25;1.92;;;;;;;;;;5036202;28;20021;-79
2023/05/17 11:10:04;;;;;;;6.72;1.90;;;;;;;;;;5035067;28;20081;-78
2023/05/17 11:12:37;;;;;;;8.55;2.30;;;;;;;;;;5036249;28;20048;-79
2023/05/17 11:15:11;;;;;;;10.85;1.90;;;;;;;;;;5018693;28;20025;-78
2023/05/17 11:17:42;;;;;;;7.53;1.67;;;;;;;;;;5037702;28;20025;-78
2023/05/17 11:20:13;;;;;;;6.60;1.77;;;;;;;;;;5036596;28;20071;-77
2023/05/17 11:22:42;;;;;;;4.68;1.63;;;;;;;;;;5017165;28;20033;-77
2023/05/17 11:25:12;;;;;;;5.32;1.50;;;;;;;;;;5034477;28;20428;-77
2023/05/17 11:27:43;;;;;;;9.20;1.85;;;;;;;;;;5035185;28;20021;-76
2023/05/17 11:30:25;;;;;;;5.97;2.03;;;;;;;;;;5017835;28;20480;-78
2023/05/17 11:33:04;;;;;;;7.20;1.65;;;;;;;;;;5018358;28;20033;-78
2023/05/17 11:35:37;;;;;;;9.30;2.00;;;;;;;;;;5019252;28;20464;-77
2023/05/17 11:38:20;;;;;;;6.65;1.65;;;;;;;;;;5018198;28;20083;-78
2023/05/17 11:40:47;;;;;;;6.30;1.83;;;;;;;;;;5035776;28;20036;-78
2023/05/17 11:43:21;;;;;;;7.57;2.08;;;;;;;;;;5035709;28;20057;-78
2023/05/17 11:45:49;;;;;;;;;;;;;;;;;;5035966;28;20021;-77
2023/05/17 11:48:17;;;;;;;6.55;1.80;;;;;;;;;;5035495;28;19940;-77
2023/05/17 11:50:44;;;;;;;4.07;1.50;;;;;;;;;;5034822;28;20400;-77
2023/05/17 11:53:10;;;;;;;8.15;1.92;;;;;;;;;;5016735;28;20072;-77
2023/05/17 11:55:41;;;;;;;8.05;1.73;;;;;;;;;;5035200;28;20112;-78
2023/05/17 11:58:08;;;;;;;6.00;1.45;;;;;;;;;;5033724;28;20026;-76
2023/05/17 12:00:36;;;;;;;5.03;2.00;;;;;;;;;;5033876;28;20032;-77
2023/05/17 12:03:21;;;;;;;9.98;1.83;;;;;;;;;;5033839;28;20021;-76
2023/05/17 12:05:49;;;;;;;5.85;1.58;;;;;;;;;;5017569;28;20026;-76
2023/05/17 12:08:16;;;;;;;8.10;1.70;;;;;;;;;;5035284;28;20446;-77
2023/05/17 12:10:49;;;;;;;4.53;1.60;;;;;;;;;;5017518;28;20029;-78
2023/05/17 12:13:15;;;;;;;7.50;1.52;;;;;;;;;;5038558;28;20032;-77
2023/05/17 12:15:43;;;;;;;9.88;1.77;;;;;;;;;;5038526;28;20029;-77
2023/05/17 12:18:09;;;;;;;8.30;2.05;;;;;;;;;;5039353;28;20033;-79
2023/05/17 12:20:36;;;;;;;5.93;1.60;;;;;;;;;;5040283;28;20025;-79
2023/05/17 12:23:02;;;;;;;12.20;1.80;;;;;;;;;;5038982;28;20250;-77
2023/05/17 12:25:28;;;;;;;9.47;1.70;;;;;;;;;;5039457;28;20022;-78
2023/05/17 12:28:20;;;;;;;7.38;1.80;;;;;;;;;;5021809;28;20262;-78
2023/05/17 12:30:51;;;;;;;6.38;1.60;;;;;;;;;;5021616;28;20039;-78
2023/05/17 12:33:17;;;;;;;6.68;1.98;;;;;;;;;;5039336;28;20025;-77
2023/05/17 12:35:42;;;;;;;5.30;1.40;;;;;;;;;;5039417;28;20033;-78
2023/05/17 12:38:07;;;;;;;4.38;1.38;;;;;;;;;;5039850;28;20477;-79
2023/05/17 12:40:33;;;;;;;5.03;1.55;;;;;;;;;;5022234;28;20368;-78
2023/05/17 12:43:04;;;;;;;6.80;1.65;;;;;;;;;;5021005;28;20021;-78
2023/05/17 12:45:30;;;;;;;7.13;1.73;;;;;;;;;;5021595;28;20381;-78
2023/05/17 12:47:56;;;;;;;6.18;1.13;;;;;;;;;;5021954;28;20061;-78
2023/05/17 12:50:29;;;;;;;6.10;1.35;;;;;;;;;;5019927;28;20087;-78
2023/05/17 12:52:54;;;;;;;4.00;1.10;;;;;;;;;;5039451;28;20025;-78
2023/05/17 12:55:20;;;;;;;5.88;1.52;;;;;;;;;;5038864;28;20530;-77
2023/05/17 12:57:52;;;;;;;6.55;1.52;;;;;;;;;;5037601;28;20025;-77
2023/05/17 13:00:19;;;;;;;4.57;1.20;;;;;;;;;;5039586;28;20105;-77
2023/05/17 13:02:44;;;;;;;4.75;1.30;;;;;;;;;;5021932;28;20029;-78
2023/05/17 13:05:17;;;;;;;2.92;0.98;;;;;;;;;;5020322;28;20021;-77
2023/05/17 13:07:44;;;;;;;5.95;1.52;;;;;;;;;;5039812;28;20030;-77
2023/05/17 13:10:30;;;;;;;8.90;1.75;;;;;;;;;;5037767;28;20029;-79
2023/05/17 13:12:57;;;;;;;4.15;1.40;;;;;;;;;;5018730;28;20037;-79
2023/05/17 13:15:28;;;;;;;5.60;1.50;;;;;;;;;;5021074;28;20123;-78
2023/05/17 13:17:54;;;;;;;9.07;1.80;;;;;;;;;;5021398;28;20508;-78
2023/05/17 13:20:19;;;;;;;10.13;1.60;;;;;;;;;;5021614;28;20037;-78
2023/05/17 13:22:46;;;;;;;9.10;1.50;;;;;;;;;;5038896;28;20033;-79
2023/05/17 13:25:11;;;;;;;6.38;1.90;;;;;;;;;;5038919;28;20022;-77
2023/05/17 13:27:36;;;;;;;5.22;1.60;;;;;;;;;;5040093;28;20430;-77
2023/05/17 13:30:02;;;;;;;6.43;1.52;;;;;;;;;;5040793;28;20083;-78
2023/05/17 13:32:27;;;;;;;5.32;1.50;;;;;;;;;;5021479;28;20041;-79
2023/05/17 13:34:52;;;;;;;5.13;1.40;;;;;;;;;;5039718;28;20025;-78
2023/05/17 13:37:17;;;;;;;5.20;1.63;;;;;;;;;;5039514;28;20018;-78
2023/05/17 13:39:42;;;;;;;7.68;1.70;;;;;;;;;;5021330;28;20258;-77
2023/05/17 13:42:09;;;;;;;5.77;1.63;;;;;;;;;;5039654;28;20017;-78
2023/05/17 13:44:34;;;;;;;5.70;1.35;;;;;;;;;;5040342;28;20322;-77
2023/05/17 13:47:00;;;;;;;6.82;1.52;;;;;;;;;;5039724;28;20053;-78
2023/05/17 13:49:27;;;;;;;7.53;1.27;;;;;;;;;;5039525;28;20030;-78
2023/05/17 13:51:52;;;;;;;5.35;1.70;;;;;;;;;;5039249;28;20048;-79
2023/05/17 13:54:19;;;;;;;7.80;1.70;;;;;;;;;;5039117;28;20029;-77
2023/05/17 13:56:44;;;;;;;9.93;1.83;;;;;;;;;;5035779;28;20270;-78
2023/05/17 13:59:09;;;;;;;7.97;1.52;;;;;;;;;;5036174;28;20021;-77
2023/05/17 14:01:35;;;;;;;5.83;1.90;;;;;;;;;;5021407;28;20035;-77
2023/05/17 14:04:00;;;;;;;6.63;1.63;;;;;;;;;;5038286;28;20312;-79
2023/05/17 14:06:25;;;;;;;8.93;1.70;;;;;;;;;;5037439;28;20061;-77
2023/05/17 14:08:52;;;;;;;5.30;1.70;;;;;;;;;;5038530;28;20348;-78
2023/05/17 14:11:18;;;;;;;5.78;1.52;;;;;;;;;;5039475;28;20485;-78
2023/05/17 14:13:43;;;;;;;4.53;1.52;;;;;;;;;;5038565;28;20034;-77
2023/05/17 14:16:08;;;;;;;5.30;1.53;;;;;;;;;;5036830;28;20024;-77
2023/05/17 14:18:33;;;;;;;8.07;1.27;;;;;;;;;;5021082;28;20258;-79
2023/05/17 14:20:59;;;;;;;11.45;1.70;;;;;;;;;;5036335;28;20041;-78
2023/05/17 14:23:25;;;;;;;5.13;1.60;;;;;;;;;;5037880;28;20032;-78
2023/05/17 14:25:50;;;;;;;7.78;1.50;;;;;;;;;;5035297;28;20445;-78
2023/05/17 14:28:16;;;;;;;9.52;1.80;;;;;;;;;;5038776;28;20400;-78
2023/05/17 14:30:42;;;;;;;6.40;1.50;;;;;;;;;;5038763;28;20483;-77
2023/05/17 14:33:07;;;;;;;5.15;1.67;;;;;;;;;;5038400;28;20029;-78
2023/05/17 14:35:32;;;;;;;5.00;1.40;;;;;;;;;;5037042;28;20023;-77
2023/05/17 14:37:58;;;;;;;7.83;1.47;;;;;;;;;;5037829;28;20294;-79
2023/05/17 14:40:23;;;;;;;3.80;1.20;;;;;;;;;;5038410;28;20274;-77
2023/05/17 14:42:48;;;;;;;3.25;1.20;;;;;;;;;;5019418;28;20259;-77
2023/05/17 14:45:13;;;;;;;6.13;1.40;;;;;;;;;;5036213;28;20033;-77
2023/05/17 14:47:39;;;;;;;6.20;1.67;;;;;;;;;;5035875;28;20289;-78
2023/05/17 14:50:04;;;;;;;5.95;1.50;;;;;;;;;;5038352;28;20036;-78
2023/05/17 14:52:32;;;;;;;7.28;1.65;;;;;;;;;;5038039;28;20036;-76
2023/05/17 14:54:58;;;;;;;5.18;1.08;;;;;;;;;;5038161;28;20091;-78
2023/05/17 14:57:23;;;;;;;7.32;1.48;;;;;;;;;;5037166;28;20473;-76
2023/05/17 14:59:48;;;;;;;4.28;1.30;;;;;;;;;;5018383;28;20033;-77